Time;durP1;ratioP1;P1;durP2;ratioP2;P2;SDS_P1;SDS_P2;PMS_P1;PMS_P2;Temp;Humidity;BMP_temperature;BMP_pressure;BME280_temperature;BME280_humidity;BME280_pressure;Samples;Min_cycle;Max_cycle;Signal;HPM_P1;HPM_P2
2021/12/02 00:01:11;;;;;;;15.10;8.68;;;;;;;-2.72;69.22;99378.84;1699959;83;21568;-72
2021/12/02 00:03:39;;;;;;;13.45;7.35;;;;;;;-2.73;69.28;99380.59;1725695;83;20964;-71
2021/12/02 00:06:10;;;;;;;11.50;7.50;;;;;;;-2.73;69.32;99379.75;1712946;82;21484;-72
2021/12/02 00:08:37;;;;;;;13.15;7.33;;;;;;;-2.74;69.35;99387.95;1715414;83;21817;-71
2021/12/02 00:11:04;;;;;;;14.45;8.90;;;;;;;-2.73;69.40;99390.09;1713178;83;21469;-71
2021/12/02 00:13:37;;;;;;;17.17;9.25;;;;;;;-2.73;69.43;99392.21;1702971;81;21045;-71
2021/12/02 00:16:26;;;;;;;15.30;9.25;;;;;;;-2.71;69.39;99377.94;1708493;83;21031;-71
2021/12/02 00:21:03;;;;;;;18.32;9.70;;;;;;;-2.72;69.37;99384.01;1697326;83;21100;-71
2021/12/02 00:21:05;;;;;;;20.08;11.80;;;;;;;-2.75;69.39;99375.94;1714870;83;22213;-71
2021/12/02 00:23:49;;;;;;;18.23;10.63;;;;;;;-2.75;69.42;99375.09;1713660;83;21436;-71
2021/12/02 00:26:17;;;;;;;18.75;10.38;;;;;;;-2.75;69.46;99373.80;1710602;83;28953;-71
2021/12/02 00:28:45;;;;;;;19.65;12.07;;;;;;;-2.76;69.50;99373.42;1711970;83;20948;-71
2021/12/02 00:31:17;;;;;;;20.88;11.73;;;;;;;-2.77;69.55;99367.41;1708687;81;21047;-70
2021/12/02 00:33:46;;;;;;;18.50;10.72;;;;;;;-2.77;69.60;99358.37;1684528;84;21842;-71
2021/12/02 00:36:13;;;;;;;18.12;10.35;;;;;;;-2.76;69.59;99363.92;1714290;82;21049;-71
2021/12/02 00:38:41;;;;;;;21.40;12.65;;;;;;;-2.77;69.65;99359.66;1711197;83;21072;-71
2021/12/02 00:41:19;;;;;;;20.30;11.83;;;;;;;-2.76;69.74;99361.79;1702957;83;20980;-70
2021/12/02 00:43:47;;;;;;;20.17;11.33;;;;;;;-2.76;69.83;99367.80;1714811;83;21078;-70
2021/12/02 00:46:18;;;;;;;16.25;9.45;;;;;;;-2.73;69.91;99368.12;1706510;83;22811;-69
2021/12/02 00:48:45;;;;;;;17.55;10.20;;;;;;;-2.70;69.93;99362.81;1706757;83;21011;-70
2021/12/02 00:51:12;;;;;;;19.70;9.98;;;;;;;-2.67;69.97;99367.87;1716129;83;21011;-70
2021/12/02 00:53:44;;;;;;;14.03;8.48;;;;;;;-2.65;70.00;99366.90;1709241;83;21236;-69
2021/12/02 00:56:14;;;;;;;13.25;8.58;;;;;;;-2.61;69.99;99363.30;1705760;82;21101;-69
2021/12/02 00:58:40;;;;;;;13.98;7.58;;;;;;;-2.57;70.03;99366.59;1696231;82;21796;-70
2021/12/02 01:01:08;;;;;;;12.25;7.58;;;;;;;-2.53;70.02;99360.37;1725220;82;20944;-69
2021/12/02 01:03:35;;;;;;;15.23;7.50;;;;;;;-2.50;69.98;99359.42;1712352;82;21102;-70
2021/12/02 01:06:04;;;;;;;10.25;5.97;;;;;;;-2.48;69.96;99348.55;1725771;82;21079;-70
2021/12/02 01:08:35;;;;;;;10.03;6.30;;;;;;;-2.45;69.92;99355.72;1714296;82;21068;-71
2021/12/02 01:11:06;;;;;;;9.08;5.20;;;;;;;-2.41;69.83;99355.99;1724881;82;22007;-71
2021/12/02 01:13:32;;;;;;;12.63;5.17;;;;;;;-2.38;69.71;99347.25;1718265;81;20992;-69
2021/12/02 01:15:59;;;;;;;8.80;4.50;;;;;;;-2.34;69.58;99350.92;1725142;81;20996;-70
2021/12/02 01:18:26;;;;;;;10.43;4.90;;;;;;;-2.30;69.38;99347.77;1706324;82;20980;-70
2021/12/02 01:20:52;;;;;;;5.92;3.52;;;;;;;-2.24;69.28;99347.94;1704879;84;21480;-70
2021/12/02 01:23:21;;;;;;;6.65;3.80;;;;;;;-2.20;69.02;99341.74;1721929;82;21836;-69
2021/12/02 01:25:59;;;;;;;5.85;3.40;;;;;;;-2.18;68.79;99334.30;1724538;82;20941;-69
2021/12/02 01:28:26;;;;;;;6.03;3.20;;;;;;;-2.14;68.55;99326.77;1689058;82;20974;-71
2021/12/02 01:30:54;;;;;;;4.20;2.90;;;;;;;-2.10;68.24;99324.45;1719537;82;20953;-70
2021/12/02 01:33:22;;;;;;;5.40;3.10;;;;;;;-2.07;67.96;99318.30;1704863;83;21583;-70
2021/12/02 01:35:58;;;;;;;4.67;2.90;;;;;;;-2.02;67.71;99318.94;1717553;82;21811;-69
2021/12/02 01:38:26;;;;;;;5.35;2.92;;;;;;;-1.99;67.47;99314.91;1714464;82;20974;-70
2021/12/02 01:40:53;;;;;;;5.35;3.15;;;;;;;-1.95;67.32;99319.03;1711695;82;21006;-71
2021/12/02 01:43:21;;;;;;;4.47;2.90;;;;;;;-1.92;67.12;99316.78;1725708;82;21399;-70
2021/12/02 01:45:48;;;;;;;4.75;3.17;;;;;;;-1.88;66.73;99323.48;1718575;82;21407;-70
2021/12/02 01:48:24;;;;;;;4.75;2.83;;;;;;;-1.85;66.32;99311.23;1730863;82;21738;-70
2021/12/02 01:51:03;;;;;;;4.45;2.80;;;;;;;-1.81;66.05;99300.30;1705042;84;21021;-70
2021/12/02 01:53:36;;;;;;;3.35;2.12;;;;;;;-1.78;65.62;99295.81;1711891;82;21024;-70
2021/12/02 01:56:15;;;;;;;4.92;2.52;;;;;;;-1.75;65.06;99285.30;1711003;82;29241;-70
2021/12/02 01:58:46;;;;;;;4.87;2.75;;;;;;;-1.70;64.84;99269.58;1719299;82;21004;-70
2021/12/02 02:01:21;;;;;;;5.97;2.97;;;;;;;-1.65;64.63;99266.75;1728296;82;23043;-70
2021/12/02 02:03:52;;;;;;;6.55;3.25;;;;;;;-1.62;64.50;99262.30;1714175;82;21397;-71
2021/12/02 02:06:28;;;;;;;6.53;3.50;;;;;;;-1.62;64.21;99267.47;1721510;82;20978;-71
2021/12/02 02:08:57;;;;;;;6.75;3.45;;;;;;;-1.62;64.06;99266.63;1695123;82;21062;-70
2021/12/02 02:11:27;;;;;;;6.92;3.83;;;;;;;-1.63;63.87;99279.20;1714774;82;20930;-70
2021/12/02 02:13:55;;;;;;;10.03;3.83;;;;;;;-1.66;63.65;99268.50;1725775;82;21826;-70
2021/12/02 02:16:22;;;;;;;6.83;3.60;;;;;;;-1.68;63.63;99266.91;1734743;82;21032;-70
2021/12/02 02:18:50;;;;;;;7.70;3.42;;;;;;;-1.69;63.60;99273.84;1736979;82;21447;-76
2021/12/02 02:21:19;;;;;;;6.67;3.85;;;;;;;-1.68;63.55;99265.61;1712785;82;20960;-70
2021/12/02 02:23:57;;;;;;;10.03;4.35;;;;;;;-1.68;63.33;99269.50;1714474;82;20941;-70
2021/12/02 02:26:26;;;;;;;8.10;4.25;;;;;;;-1.65;63.06;99266.75;1732672;82;21827;-70
2021/12/02 02:28:52;;;;;;;6.90;4.22;;;;;;;-1.63;62.91;99268.38;1722962;82;21001;-70
2021/12/02 02:31:18;;;;;;;9.28;4.28;;;;;;;-1.61;62.68;99266.55;1715412;82;21246;-70
2021/12/02 02:33:49;;;;;;;9.50;4.30;;;;;;;-1.58;62.38;99275.92;1710896;82;20997;-70
2021/12/02 02:36:15;;;;;;;7.53;4.20;;;;;;;-1.56;61.58;99268.91;1714137;82;21467;-70
2021/12/02 02:38:41;;;;;;;8.75;5.03;;;;;;;-1.51;61.54;99259.19;1722400;82;22431;-71
2021/12/02 02:41:10;;;;;;;10.48;5.65;;;;;;;-1.48;61.29;99259.03;1720928;82;20942;-70
2021/12/02 02:43:36;;;;;;;9.60;4.85;;;;;;;-1.45;61.16;99252.40;1710135;84;21443;-70
2021/12/02 02:46:02;;;;;;;7.03;3.55;;;;;;;-1.42;61.04;99243.20;1710959;82;20977;-70
2021/12/02 02:48:30;;;;;;;4.95;3.60;;;;;;;-1.39;61.04;99245.64;1685824;84;20984;-70
2021/12/02 02:50:56;;;;;;;6.53;3.33;;;;;;;-1.38;61.03;99243.42;1719655;82;22508;-70
2021/12/02 02:53:24;;;;;;;8.60;4.37;;;;;;;-1.36;60.92;99255.00;1732455;82;21050;-70
2021/12/02 03:01:21;;;;;;;6.45;3.25;;;;;;;-1.34;60.58;99250.16;1723928;82;20956;-70
2021/12/02 03:08:59;;;;;;;9.18;4.10;;;;;;;-1.31;60.57;99260.81;1703601;82;20982;-70
2021/12/02 03:11:19;;;;;;;5.53;3.80;;;;;;;-1.31;60.71;99264.70;1720218;82;21070;-70
2021/12/02 03:13:51;;;;;;;7.85;4.47;;;;;;;-1.32;60.91;99257.84;1711519;82;20956;-70
2021/12/02 03:19:01;;;;;;;6.55;3.70;;;;;;;-1.31;61.17;99238.34;1717872;83;21047;-70
2021/12/02 03:21:28;;;;;;;7.00;3.90;;;;;;;-1.30;61.42;99234.83;1704994;83;20996;-71
2021/12/02 03:23:58;;;;;;;8.93;4.55;;;;;;;-1.33;61.64;99234.98;1708670;83;20994;-70
2021/12/02 03:26:25;;;;;;;6.87;4.35;;;;;;;-1.33;61.79;99240.17;1692410;83;21022;-70
2021/12/02 03:28:52;;;;;;;7.75;4.22;;;;;;;-1.33;61.97;99236.74;1677992;83;22829;-70
2021/12/02 03:31:19;;;;;;;7.78;4.60;;;;;;;-1.32;62.03;99235.37;1686464;83;20883;-71
2021/12/02 03:33:45;;;;;;;7.70;5.22;;;;;;;-1.30;62.22;99246.95;1716037;83;21029;-72
2021/12/02 03:36:12;;;;;;;9.05;6.55;;;;;;;-1.29;62.26;99255.09;1698390;82;21036;-70
2021/12/02 03:38:38;;;;;;;10.35;6.87;;;;;;;-1.27;62.35;99245.03;1700250;83;20952;-70
2021/12/02 03:41:05;;;;;;;11.22;6.58;;;;;;;-1.24;62.66;99240.18;1692340;83;22152;-70
2021/12/02 03:43:39;;;;;;;9.05;6.17;;;;;;;-1.21;62.78;99244.74;1719952;83;21035;-70
2021/12/02 03:46:09;;;;;;;8.65;5.58;;;;;;;-1.19;62.72;99237.73;1686795;84;21075;-70
2021/12/02 03:48:38;;;;;;;9.08;6.35;;;;;;;-1.15;62.68;99243.61;1717738;83;21605;-70
2021/12/02 03:51:05;;;;;;;8.80;5.90;;;;;;;-1.11;62.80;99243.83;1726345;83;20980;-70
2021/12/02 03:53:33;;;;;;;7.62;5.08;;;;;;;-1.07;62.97;99234.14;1725388;83;21674;-70
2021/12/02 03:56:01;;;;;;;6.65;4.83;;;;;;;-1.07;63.01;99236.27;1718889;83;20934;-70
2021/12/02 03:58:29;;;;;;;8.60;5.67;;;;;;;-1.05;63.04;99232.33;1727091;83;20953;-71
2021/12/02 04:00:55;;;;;;;10.03;6.30;;;;;;;-1.03;63.12;99237.81;1726440;83;20945;-71
2021/12/02 04:03:22;;;;;;;13.62;7.55;;;;;;;-1.01;63.25;99240.32;1709546;83;21000;-70
2021/12/02 04:05:49;;;;;;;11.85;7.53;;;;;;;-0.99;63.41;99233.30;1733756;82;21704;-70
2021/12/02 04:08:16;;;;;;;13.35;7.15;;;;;;;-0.97;63.54;99226.28;1696338;83;21018;-70
2021/12/02 04:10:43;;;;;;;8.88;7.08;;;;;;;-0.94;63.72;99223.55;1706563;83;21013;-70
2021/12/02 04:13:19;;;;;;;12.95;7.35;;;;;;;-0.93;63.94;99218.28;1706376;83;21065;-70
2021/12/02 04:15:44;;;;;;;12.58;7.50;;;;;;;-0.90;64.13;99217.28;1685584;84;21563;-70
2021/12/02 04:18:09;;;;;;;9.70;6.28;;;;;;;-0.88;64.22;99212.39;1714581;82;21728;-70
2021/12/02 04:20:37;;;;;;;11.53;7.10;;;;;;;-0.86;64.41;99205.86;1731925;82;20991;-70
2021/12/02 04:23:04;;;;;;;10.48;7.00;;;;;;;-0.84;64.48;99201.43;1724163;82;21422;-70
2021/12/02 04:25:31;;;;;;;16.45;9.18;;;;;;;-0.81;64.67;99201.72;1720154;82;21035;-71
2021/12/02 04:27:57;;;;;;;17.42;10.08;;;;;;;-0.79;64.90;99202.48;1718558;81;21051;-70
2021/12/02 04:30:26;;;;;;;10.78;8.25;;;;;;;-0.78;65.10;99195.91;1728770;82;21903;-70
2021/12/02 04:32:52;;;;;;;12.60;8.13;;;;;;;-0.75;65.21;99198.83;1731939;82;21024;-70
2021/12/02 04:35:19;;;;;;;12.33;8.18;;;;;;;-0.74;65.36;99190.96;1727677;82;21011;-70
2021/12/02 04:37:48;;;;;;;11.28;7.65;;;;;;;-0.70;65.66;99205.89;1718128;82;20976;-71
2021/12/02 04:40:16;;;;;;;14.18;10.23;;;;;;;-0.67;65.78;99204.00;1722436;82;21067;-71
2021/12/02 04:42:43;;;;;;;32.35;18.77;;;;;;;-0.64;65.94;99205.58;1715926;82;22540;-70
2021/12/02 04:45:10;;;;;;;15.13;8.58;;;;;;;-0.61;66.12;99206.25;1707975;82;20969;-71
2021/12/02 04:47:36;;;;;;;14.13;9.68;;;;;;;-0.57;66.27;99216.48;1717466;82;21471;-69
2021/12/02 04:50:05;;;;;;;14.55;11.18;;;;;;;-0.52;66.42;99211.88;1731215;82;21450;-70
2021/12/02 04:52:32;;;;;;;16.15;10.28;;;;;;;-0.51;66.57;99204.01;1731032;82;21023;-70
2021/12/02 04:54:58;;;;;;;15.50;10.35;;;;;;;-0.48;66.72;99204.30;1705930;82;21807;-72
2021/12/02 04:57:24;;;;;;;16.20;11.63;;;;;;;-0.45;66.79;99204.16;1748869;81;21054;-72
2021/12/02 04:59:51;;;;;;;13.78;10.20;;;;;;;-0.44;66.83;99195.45;1704858;83;21110;-71
2021/12/02 05:02:17;;;;;;;16.82;11.57;;;;;;;-0.43;66.83;99197.12;1723087;82;21017;-73
2021/12/02 05:04:43;;;;;;;18.85;12.88;;;;;;;-0.42;66.99;99188.42;1720040;82;21047;-70
2021/12/02 05:07:10;;;;;;;21.60;14.80;;;;;;;-0.42;67.08;99191.02;1713956;82;22183;-68
2021/12/02 05:09:36;;;;;;;18.87;13.32;;;;;;;-0.41;67.13;99189.62;1728282;82;21653;-72
2021/12/02 05:12:04;;;;;;;15.32;11.28;;;;;;;-0.41;67.22;99183.61;1723449;82;20908;-71
2021/12/02 05:14:31;;;;;;;14.85;11.85;;;;;;;-0.40;67.32;99186.11;1719505;82;21325;-70
2021/12/02 05:16:57;;;;;;;19.12;12.93;;;;;;;-0.38;67.40;99192.55;1722494;82;21018;-70
2021/12/02 05:19:24;;;;;;;17.42;13.10;;;;;;;-0.35;67.38;99196.27;1698888;83;22453;-71
2021/12/02 05:21:50;;;;;;;22.42;15.75;;;;;;;-0.33;67.40;99204.33;1676076;84;21013;-67
2021/12/02 05:24:16;;;;;;;33.73;22.73;;;;;;;-0.32;67.48;99198.68;1686693;85;21029;-68
2021/12/02 05:26:43;;;;;;;28.60;18.82;;;;;;;-0.31;67.57;99188.67;1687590;84;21502;-70
2021/12/02 05:29:10;;;;;;;30.65;19.95;;;;;;;-0.27;67.59;99191.97;1691262;84;21048;-68
2021/12/02 05:31:36;;;;;;;17.07;11.88;;;;;;;-0.25;67.66;99184.92;1681957;84;21804;-68
2021/12/02 05:34:04;;;;;;;25.60;16.67;;;;;;;-0.23;67.68;99183.08;1676162;84;21009;-70
2021/12/02 05:36:33;;;;;;;28.05;16.55;;;;;;;-0.21;67.70;99182.53;1682327;83;21080;-70
2021/12/02 05:38:59;;;;;;;17.45;12.78;;;;;;;-0.18;67.81;99187.11;1688261;83;21079;-68
2021/12/02 05:41:26;;;;;;;14.95;10.88;;;;;;;-0.14;67.89;99194.26;1691718;84;20973;-69
2021/12/02 05:43:52;;;;;;;18.32;13.55;;;;;;;-0.12;67.93;99178.14;1684083;84;22635;-67
2021/12/02 05:46:19;;;;;;;17.85;12.68;;;;;;;-0.07;67.99;99176.98;1681533;84;20949;-67
2021/12/02 05:48:46;;;;;;;15.30;12.00;;;;;;;-0.03;67.99;99177.63;1682270;84;21072;-67
2021/12/02 05:51:12;;;;;;;16.37;12.82;;;;;;;0.00;68.04;99182.68;1696674;84;21029;-68
2021/12/02 05:53:39;;;;;;;18.20;13.53;;;;;;;0.04;68.03;99189.83;1678991;84;21029;-67
2021/12/02 05:56:05;;;;;;;16.27;12.25;;;;;;;0.09;68.11;99203.38;1675808;84;22188;-67
2021/12/02 05:58:32;;;;;;;13.40;10.65;;;;;;;0.12;68.19;99204.52;1693276;84;21056;-67
2021/12/02 06:00:59;;;;;;;14.87;11.45;;;;;;;0.14;68.24;99208.70;1690531;84;21010;-67
2021/12/02 06:03:25;;;;;;;16.80;13.00;;;;;;;0.18;68.28;99216.69;1702291;84;21162;-68
2021/12/02 06:05:52;;;;;;;14.07;11.08;;;;;;;0.21;68.33;99207.91;1691179;84;21057;-67
2021/12/02 06:08:19;;;;;;;17.15;13.08;;;;;;;0.24;68.38;99199.94;1691336;83;22170;-68
2021/12/02 06:10:45;;;;;;;17.05;10.30;;;;;;;0.25;68.43;99196.41;1686915;84;21123;-68
2021/12/02 06:13:11;;;;;;;25.15;17.00;;;;;;;0.28;68.36;99180.66;1689173;83;21092;-67
2021/12/02 06:15:37;;;;;;;15.15;11.57;;;;;;;0.31;68.44;99177.91;1685512;84;20966;-67
2021/12/02 06:18:04;;;;;;;15.63;11.75;;;;;;;0.33;68.53;99185.14;1710958;82;21031;-68
2021/12/02 06:20:32;;;;;;;12.80;10.03;;;;;;;0.34;68.57;99173.83;1720308;82;22262;-67
2021/12/02 06:22:58;;;;;;;18.07;12.80;;;;;;;0.36;68.58;99173.73;1729253;82;20952;-68
2021/12/02 06:27:53;;;;;;;15.32;12.10;;;;;;;0.40;68.68;99163.09;1710821;82;21035;-68
2021/12/02 06:30:21;;;;;;;14.47;10.85;;;;;;;0.43;68.73;99168.11;1708152;82;21063;-68
2021/12/02 06:32:48;;;;;;;16.73;12.78;;;;;;;0.45;68.69;99179.24;1730286;82;21819;-68
2021/12/02 06:35:15;;;;;;;17.77;12.65;;;;;;;0.48;68.68;99167.40;1710217;82;21051;-68
2021/12/02 06:37:42;;;;;;;14.93;11.70;;;;;;;0.51;68.74;99168.98;1731082;82;21095;-67
2021/12/02 06:40:09;;;;;;;16.80;11.50;;;;;;;0.53;68.75;99159.33;1705076;82;20964;-67
2021/12/02 06:42:36;;;;;;;15.95;10.95;;;;;;;0.54;68.64;99163.59;1716369;82;21007;-68
2021/12/02 06:45:04;;;;;;;15.75;11.25;;;;;;;0.57;68.58;99164.23;1720736;82;22186;-68
2021/12/02 06:47:38;;;;;;;17.40;11.80;;;;;;;0.60;68.53;99169.75;1713789;82;20853;-68
2021/12/02 06:50:03;;;;;;;16.82;12.43;;;;;;;0.63;68.52;99160.47;1711590;82;21262;-68
2021/12/02 06:52:30;;;;;;;14.58;11.35;;;;;;;0.67;68.65;99163.70;1707074;82;21028;-69
2021/12/02 06:54:57;;;;;;;18.02;12.25;;;;;;;0.69;68.56;99177.48;1721665;82;21003;-68
2021/12/02 06:57:24;;;;;;;14.90;10.82;;;;;;;0.72;68.53;99166.89;1705279;82;21792;-68
2021/12/02 06:59:50;;;;;;;14.98;11.28;;;;;;;0.76;68.50;99174.88;1710966;82;21060;-68
2021/12/02 07:02:18;;;;;;;15.95;11.38;;;;;;;0.77;68.53;99162.24;1719312;82;20996;-68
2021/12/02 07:04:46;;;;;;;14.45;10.03;;;;;;;0.77;68.42;99151.85;1726911;82;21043;-69
2021/12/02 07:07:13;;;;;;;15.68;11.55;;;;;;;0.76;68.45;99141.92;1713631;82;21103;-68
2021/12/02 07:09:39;;;;;;;15.70;11.70;;;;;;;0.76;68.45;99147.12;1731394;82;22193;-69
2021/12/02 07:12:07;;;;;;;14.65;10.78;;;;;;;0.78;68.59;99147.05;1715776;82;21000;-69
2021/12/02 07:14:34;;;;;;;15.88;12.25;;;;;;;0.78;68.67;99158.75;1720543;82;21005;-69
2021/12/02 07:17:00;;;;;;;18.85;13.68;;;;;;;0.77;68.66;99160.95;1720955;82;20973;-70
2021/12/02 07:19:28;;;;;;;18.20;13.90;;;;;;;0.79;68.76;99150.02;1699521;83;20994;-73
2021/12/02 07:21:55;;;;;;;15.00;11.73;;;;;;;0.80;68.71;99152.99;1675822;84;22252;-73
2021/12/02 07:24:23;;;;;;;17.67;12.80;;;;;;;0.81;68.78;99152.89;1685338;84;21012;-71
2021/12/02 07:26:49;;;;;;;16.12;11.78;;;;;;;0.84;68.94;99157.06;1692085;84;21336;-72
2021/12/02 07:29:16;;;;;;;17.67;11.45;;;;;;;0.84;68.97;99148.80;1686074;84;21029;-73
2021/12/02 07:31:43;;;;;;;17.62;12.73;;;;;;;0.89;69.05;99163.31;1688919;84;21064;-76
2021/12/02 07:34:10;;;;;;;15.75;12.03;;;;;;;0.94;69.07;99160.80;1675761;85;21858;-73
2021/12/02 07:36:37;;;;;;;19.17;13.55;;;;;;;0.98;69.13;99151.91;1677885;84;21065;-76
2021/12/02 07:39:07;;;;;;;14.10;11.03;;;;;;;1.02;69.16;99150.78;1690400;84;21013;-72
2021/12/02 07:41:35;;;;;;;12.75;9.33;;;;;;;1.06;69.25;99145.78;1700905;83;21092;-73
2021/12/02 07:44:01;;;;;;;15.05;11.15;;;;;;;1.08;69.15;99146.98;1693357;84;21522;-74
2021/12/02 07:46:30;;;;;;;14.20;10.35;;;;;;;1.10;69.20;99143.83;1693031;84;21848;-71
2021/12/02 07:48:57;;;;;;;13.22;10.85;;;;;;;1.13;69.25;99148.83;1668269;85;21102;-68
2021/12/02 07:51:29;;;;;;;15.80;11.88;;;;;;;1.14;69.21;99144.84;1659364;84;21559;-70
2021/12/02 07:53:57;;;;;;;13.00;10.38;;;;;;;1.16;69.36;99146.07;1666675;84;21013;-70
2021/12/02 07:56:24;;;;;;;13.72;10.28;;;;;;;1.21;69.47;99144.48;1660598;84;21029;-71
2021/12/02 07:58:50;;;;;;;12.37;9.28;;;;;;;1.24;69.55;99150.31;1695533;84;21824;-73
2021/12/02 08:01:17;;;;;;;14.20;10.15;;;;;;;1.26;69.61;99143.28;1691530;83;21482;-75
2021/12/02 08:03:45;;;;;;;15.38;10.60;;;;;;;1.30;69.69;99140.85;1702296;84;21083;-74
2021/12/02 08:06:12;;;;;;;13.83;10.58;;;;;;;1.35;69.78;99140.55;1698082;83;21471;-75
2021/12/02 08:08:39;;;;;;;14.90;10.20;;;;;;;1.41;69.85;99132.39;1663112;83;21029;-73
2021/12/02 08:11:07;;;;;;;14.83;10.78;;;;;;;1.46;69.94;99132.12;1685986;84;22212;-74
2021/12/02 08:13:35;;;;;;;11.60;8.78;;;;;;;1.50;69.98;99124.02;1684385;84;21045;-75
2021/12/02 08:16:02;;;;;;;13.10;10.03;;;;;;;1.51;69.94;99128.28;1695876;83;20957;-73
2021/12/02 08:18:29;;;;;;;13.10;9.50;;;;;;;1.54;70.05;99121.58;1683862;82;21088;-74
2021/12/02 08:20:56;;;;;;;12.33;9.55;;;;;;;1.56;70.15;99106.73;1688267;83;21013;-78
2021/12/02 08:23:22;;;;;;;12.15;9.43;;;;;;;1.59;70.25;99108.30;1704269;83;22444;-73
2021/12/02 08:25:48;;;;;;;11.53;9.18;;;;;;;1.60;70.37;99109.96;1685267;83;20957;-76
2021/12/02 08:28:15;;;;;;;11.78;8.65;;;;;;;1.61;70.44;99097.31;1699607;84;21013;-75
2021/12/02 08:30:41;;;;;;;13.50;9.90;;;;;;;1.64;70.58;99094.51;1704089;84;21048;-72
2021/12/02 08:33:08;;;;;;;11.88;9.68;;;;;;;1.65;70.71;99103.55;1697798;83;21444;-79
2021/12/02 08:35:35;;;;;;;12.18;9.38;;;;;;;1.69;70.82;99088.56;1677436;83;22234;-74
2021/12/02 08:38:09;;;;;;;11.60;8.90;;;;;;;1.73;70.97;99095.23;1675725;85;21028;-74
2021/12/02 08:40:32;;;;;;;10.82;9.00;;;;;;;1.76;71.06;99085.11;1675681;85;21036;-79
2021/12/02 08:43:00;;;;;;;11.03;9.03;;;;;;;1.79;71.15;99079.70;1677446;84;21014;-77
2021/12/02 08:45:27;;;;;;;12.20;9.43;;;;;;;1.82;71.27;99078.19;1682697;84;20958;-76
2021/12/02 08:47:55;;;;;;;11.95;8.93;;;;;;;1.88;71.35;99079.11;1699977;84;21910;-76
2021/12/02 08:50:22;;;;;;;12.28;9.35;;;;;;;1.92;71.41;99076.66;1700025;84;20891;-76
2021/12/02 08:52:50;;;;;;;10.28;8.25;;;;;;;1.96;71.41;99088.10;1700302;84;21022;-76
2021/12/02 08:55:18;;;;;;;11.25;8.63;;;;;;;2.00;71.43;99080.91;1701127;84;21001;-75
2021/12/02 08:57:46;;;;;;;11.15;9.15;;;;;;;2.02;71.51;99062.11;1697053;84;21052;-75
2021/12/02 09:00:15;;;;;;;10.90;8.53;;;;;;;2.05;71.56;99085.38;1681042;84;22171;-75
2021/12/02 09:02:42;;;;;;;11.35;8.90;;;;;;;2.10;71.63;99079.84;1686284;84;21109;-76
2021/12/02 09:05:09;;;;;;;12.25;9.20;;;;;;;2.13;71.68;99075.30;1692463;84;21395;-76
2021/12/02 09:07:37;;;;;;;12.47;9.18;;;;;;;2.16;71.76;99075.08;1687971;84;20985;-74
2021/12/02 09:10:06;;;;;;;10.48;8.40;;;;;;;2.20;71.80;99067.89;1695109;83;21008;-76
2021/12/02 09:12:32;;;;;;;11.30;9.53;;;;;;;2.24;71.85;99068.91;1694812;84;21781;-74
2021/12/02 09:14:59;;;;;;;10.70;8.93;;;;;;;2.27;71.87;99061.34;1705614;83;20949;-73
2021/12/02 09:17:26;;;;;;;11.78;9.23;;;;;;;2.30;71.92;99063.73;1695035;84;21459;-73
2021/12/02 09:19:53;;;;;;;11.93;8.68;;;;;;;2.34;72.00;99060.48;1711759;82;21080;-72
2021/12/02 09:22:19;;;;;;;11.95;8.95;;;;;;;2.37;72.05;99049.38;1730344;82;20960;-74
2021/12/02 09:24:45;;;;;;;12.88;9.05;;;;;;;2.38;72.06;99044.53;1725299;82;22679;-73
2021/12/02 09:27:12;;;;;;;11.78;8.95;;;;;;;2.42;72.13;99036.05;1728967;82;21031;-73
2021/12/02 09:29:38;;;;;;;10.55;8.43;;;;;;;2.46;72.14;99029.22;1732313;82;20972;-74
2021/12/02 09:32:06;;;;;;;12.73;9.00;;;;;;;2.48;72.17;99035.16;1714730;82;21034;-73
2021/12/02 09:34:33;;;;;;;14.13;10.43;;;;;;;2.50;72.20;99025.45;1728679;82;21494;-73
2021/12/02 09:36:59;;;;;;;35.33;19.25;;;;;;;2.53;72.20;99023.13;1712729;82;22244;-73
2021/12/02 09:39:29;;;;;;;14.33;11.65;;;;;;;2.56;72.30;99030.73;1714028;82;21450;-72
2021/12/02 09:41:54;;;;;;;11.73;9.88;;;;;;;2.57;72.38;99028.48;1703155;82;21012;-72
2021/12/02 09:44:20;;;;;;;13.88;9.58;;;;;;;2.59;72.45;99029.20;1717677;82;21415;-73
2021/12/02 09:46:48;;;;;;;12.82;10.05;;;;;;;2.59;72.51;99017.48;1725791;82;20988;-73
2021/12/02 09:49:16;;;;;;;14.05;9.98;;;;;;;2.60;72.52;99019.14;1722141;82;21867;-73
2021/12/02 09:54:17;;;;;;;17.82;9.98;;;;;;;2.61;72.68;99009.11;1703303;84;21051;-73
2021/12/02 09:56:44;;;;;;;14.50;9.40;;;;;;;2.63;72.76;99005.92;1707595;82;21024;-72
2021/12/02 09:59:23;;;;;;;10.53;8.63;;;;;;;2.63;72.78;99004.62;1706650;83;37333;-73
2021/12/02 10:01:41;;;;;;;23.92;16.75;;;;;;;2.64;72.85;99003.67;1703377;82;22224;-74
2021/12/02 10:04:09;;;;;;;21.95;15.75;;;;;;;2.65;72.90;99005.81;1705128;82;20975;-73
2021/12/02 10:06:36;;;;;;;12.88;9.28;;;;;;;2.67;72.90;99010.44;1712274;82;21526;-75
2021/12/02 10:09:37;;;;;;;9.93;8.18;;;;;;;2.69;72.96;99013.30;1721763;82;21606;-75
2021/12/02 10:12:00;;;;;;;11.08;8.95;;;;;;;2.71;72.99;99008.01;1720433;81;21478;-75
2021/12/02 10:14:35;;;;;;;16.27;13.15;;;;;;;2.74;73.04;99002.10;1681742;82;21860;-77
2021/12/02 10:17:31;;;;;;;19.73;17.02;;;;;;;2.78;73.09;99000.10;1705008;82;20992;-74
2021/12/02 10:23:24;;;;;;;12.10;9.53;;;;;;;2.88;73.15;98999.83;1696656;84;21021;-75
2021/12/02 10:25:57;;;;;;;11.78;8.90;;;;;;;2.97;73.13;98995.74;1679778;84;20969;-79
2021/12/02 10:28:25;;;;;;;10.82;8.85;;;;;;;3.07;73.14;98991.08;1693362;84;21846;-76
2021/12/02 10:30:58;;;;;;;20.65;15.55;;;;;;;3.18;73.00;98986.87;1687227;84;21021;-70
2021/12/02 10:33:31;;;;;;;8.13;6.55;;;;;;;3.29;73.10;98978.66;1698069;83;21061;-70
2021/12/02 10:36:01;;;;;;;14.13;9.95;;;;;;;3.43;72.82;98965.44;1699617;84;20969;-72
2021/12/02 10:38:45;;;;;;;11.18;8.75;;;;;;;3.58;72.63;98959.59;1696162;84;21429;-72
2021/12/02 10:41:17;;;;;;;16.90;10.10;;;;;;;3.65;72.30;98946.42;1687491;84;21898;-74
2021/12/02 10:44:15;;;;;;;10.35;8.65;;;;;;;3.74;72.21;98944.44;1690079;82;20956;-73
2021/12/02 10:47:07;;;;;;;11.48;8.70;;;;;;;3.92;72.01;98933.09;1692652;84;21509;-71
2021/12/02 10:49:56;;;;;;;12.70;8.73;;;;;;;4.16;71.71;98923.89;1703698;84;21439;-72
2021/12/02 10:52:30;;;;;;;11.65;8.60;;;;;;;4.43;71.20;98915.70;1704553;83;21020;-71
2021/12/02 10:55:01;;;;;;;14.13;10.30;;;;;;;4.67;70.53;98919.98;1704084;84;21834;-71
2021/12/02 10:57:29;;;;;;;15.45;12.78;;;;;;;4.88;69.99;98915.20;1673027;83;21433;-70
2021/12/02 10:59:57;;;;;;;11.20;8.30;;;;;;;5.08;69.51;98909.69;1680783;84;21423;-71
2021/12/02 11:02:28;;;;;;;18.17;13.50;;;;;;;5.25;68.98;98921.91;1704272;84;21045;-74
2021/12/02 11:05:18;;;;;;;11.90;9.68;;;;;;;5.30;68.25;98932.81;1704115;83;21552;-76
2021/12/02 11:07:42;;;;;;;14.30;10.93;;;;;;;5.28;67.92;98930.80;1703420;84;20990;-74
2021/12/02 11:10:15;;;;;;;9.40;7.72;;;;;;;5.28;67.88;98921.65;1703956;83;21001;-73
2021/12/02 11:12:44;;;;;;;9.98;7.80;;;;;;;5.25;67.65;98925.83;1673014;84;20985;-73
2021/12/02 11:15:14;;;;;;;10.38;7.50;;;;;;;5.20;67.56;98909.65;1672281;84;20984;-72
2021/12/02 11:17:57;;;;;;;10.85;7.47;;;;;;;5.14;67.72;98907.06;1665443;84;20985;-73
2021/12/02 11:20:35;;;;;;;10.98;7.62;;;;;;;5.07;67.68;98897.55;1688233;83;21815;-73
2021/12/02 11:23:08;;;;;;;15.38;10.03;;;;;;;5.01;67.73;98899.34;1695163;84;20949;-73
2021/12/02 11:25:39;;;;;;;11.25;7.92;;;;;;;5.05;67.91;98892.93;1696140;83;21052;-74
2021/12/02 11:28:08;;;;;;;11.95;7.97;;;;;;;5.17;67.91;98887.17;1705661;83;21452;-73
2021/12/02 11:30:36;;;;;;;12.60;7.50;;;;;;;5.31;67.86;98897.38;1720953;83;21474;-73
2021/12/02 11:33:07;;;;;;;12.43;7.65;;;;;;;5.43;67.78;98891.62;1721477;83;22181;-72
2021/12/02 11:35:40;;;;;;;11.70;8.55;;;;;;;5.48;67.33;98885.50;1724106;81;20992;-72
2021/12/02 11:38:19;;;;;;;10.43;7.35;;;;;;;5.45;67.37;98886.59;1725387;83;21397;-72
2021/12/02 11:40:54;;;;;;;9.80;7.80;;;;;;;5.42;67.37;98886.03;1696594;83;21000;-72
2021/12/02 11:43:25;;;;;;;10.15;7.60;;;;;;;5.37;67.58;98878.53;1725364;83;20957;-73
2021/12/02 11:45:52;;;;;;;9.50;7.60;;;;;;;5.31;67.71;98886.91;1725074;83;22471;-73
2021/12/02 11:48:24;;;;;;;10.93;8.48;;;;;;;5.23;67.85;98889.31;1725278;83;20956;-69
2021/12/02 11:50:54;;;;;;;13.40;8.78;;;;;;;5.18;68.05;98901.92;1719195;81;20956;-68
2021/12/02 11:53:25;;;;;;;12.63;10.05;;;;;;;5.17;68.23;98917.28;1702444;83;21004;-74
2021/12/02 11:55:56;;;;;;;22.93;14.63;;;;;;;5.18;68.37;98925.00;1668736;84;21066;-74
2021/12/02 11:58:22;;;;;;;14.68;11.33;;;;;;;5.29;68.59;98924.61;1685012;85;22631;-74